Time;durP1;ratioP1;P1;durP2;ratioP2;P2;SDS_P1;SDS_P2;PMS_P1;PMS_P2;Temp;Humidity;BMP_temperature;BMP_pressure;BME280_temperature;BME280_humidity;BME280_pressure;Samples;Min_cycle;Max_cycle;Signal;HPM_P1;HPM_P2
2021/03/24 00:01:26;;;;;;;25.00;15.87;;;;;;;5.31;58.16;97450.56;5033401;28;20241;-68
2021/03/24 00:03:52;;;;;;;26.57;14.83;;;;;;;5.29;58.20;97456.81;5032846;28;20226;-68
2021/03/24 00:06:18;;;;;;;27.47;14.63;;;;;;;5.29;58.26;97462.88;5033505;28;20429;-68
2021/03/24 00:08:44;;;;;;;26.00;15.93;;;;;;;5.30;58.28;97448.09;5031419;28;20490;-67
2021/03/24 00:11:12;;;;;;;30.33;16.67;;;;;;;5.29;58.57;97456.81;5033728;28;20944;-67
2021/03/24 00:13:37;;;;;;;23.93;15.03;;;;;;;5.33;58.41;97447.84;5032980;28;20183;-68
2021/03/24 00:16:04;;;;;;;28.83;14.83;;;;;;;5.31;57.96;97447.16;5033778;28;20449;-69
2021/03/24 00:18:30;;;;;;;27.53;16.00;;;;;;;5.21;58.50;97450.44;5025968;28;20294;-69
2021/03/24 00:20:56;;;;;;;33.53;16.30;;;;;;;5.18;58.42;97453.25;5031312;28;20485;-68
2021/03/24 00:23:22;;;;;;;28.30;15.47;;;;;;;5.14;58.38;97443.19;5032255;28;20446;-69
2021/03/24 00:25:47;;;;;;;28.80;15.93;;;;;;;5.12;58.39;97439.88;5032803;28;20968;-68
2021/03/24 00:28:13;;;;;;;25.67;14.87;;;;;;;5.12;57.95;97443.28;5034019;28;20210;-68
2021/03/24 00:30:42;;;;;;;24.43;15.20;;;;;;;5.12;58.13;97442.47;5033220;28;20183;-68
2021/03/24 00:33:11;;;;;;;24.80;14.93;;;;;;;5.07;58.53;97443.63;5032402;28;20419;-69
2021/03/24 00:35:36;;;;;;;24.10;14.47;;;;;;;5.08;58.15;97447.88;5033545;28;20553;-69
2021/03/24 00:38:02;;;;;;;24.27;15.70;;;;;;;5.06;58.13;97444.56;5032510;28;20426;-68
2021/03/24 00:40:34;;;;;;;23.37;14.67;;;;;;;5.02;58.49;97440.53;5031849;28;20542;-68
2021/03/24 00:43:00;;;;;;;26.40;15.03;;;;;;;5.04;58.46;97443.03;5032517;28;20191;-68
2021/03/24 00:45:26;;;;;;;32.70;16.03;;;;;;;5.01;58.73;97436.28;5033250;28;20972;-68
2021/03/24 00:47:52;;;;;;;27.93;16.60;;;;;;;4.99;58.84;97443.34;5032797;28;20196;-68
2021/03/24 00:50:21;;;;;;;27.27;14.67;;;;;;;5.05;59.33;97434.28;5033239;28;20176;-69
2021/03/24 00:52:47;;;;;;;24.30;15.50;;;;;;;5.07;58.50;97437.59;5032782;28;20426;-69
2021/03/24 00:55:14;;;;;;;26.07;15.90;;;;;;;5.06;58.98;97431.56;5033024;28;20454;-68
2021/03/24 00:57:40;;;;;;;27.93;16.27;;;;;;;4.99;58.64;97430.38;5028887;28;20427;-68
2021/03/24 01:00:16;;;;;;;24.10;15.00;;;;;;;4.84;59.58;97428.88;5026628;28;21142;-68
2021/03/24 01:02:41;;;;;;;25.50;15.40;;;;;;;4.84;59.12;97432.31;5032141;28;20688;-68
2021/03/24 01:05:09;;;;;;;25.10;15.10;;;;;;;4.85;59.65;97427.94;5032544;28;20498;-68
2021/03/24 01:07:35;;;;;;;26.40;16.40;;;;;;;4.81;59.19;97426.50;5030501;28;20218;-68
2021/03/24 01:10:01;;;;;;;25.00;15.23;;;;;;;4.74;59.34;97428.69;5032228;28;20792;-68
2021/03/24 01:12:27;;;;;;;30.73;16.40;;;;;;;4.73;59.61;97429.63;5031371;28;20186;-68
2021/03/24 01:14:52;;;;;;;27.30;15.90;;;;;;;4.72;59.36;97428.81;5032238;28;20261;-68
2021/03/24 01:17:18;;;;;;;30.50;17.17;;;;;;;4.75;59.48;97419.97;5032629;28;20477;-68
2021/03/24 01:19:44;;;;;;;26.63;15.50;;;;;;;4.68;59.70;97417.00;5029166;28;20675;-68
2021/03/24 01:22:09;;;;;;;26.00;15.40;;;;;;;4.72;59.57;97422.81;5032049;28;20270;-68
2021/03/24 01:24:35;;;;;;;26.73;16.10;;;;;;;4.76;59.49;97416.44;5031221;28;20184;-67
2021/03/24 01:27:01;;;;;;;31.60;16.70;;;;;;;4.80;59.69;97411.84;5030261;28;20187;-68
2021/03/24 01:29:26;;;;;;;25.10;15.70;;;;;;;4.82;59.82;97417.75;5032195;28;20238;-67
2021/03/24 01:31:52;;;;;;;28.10;15.00;;;;;;;4.82;59.90;97420.38;5031592;28;20194;-68
2021/03/24 01:34:17;;;;;;;26.90;15.60;;;;;;;4.78;59.90;97414.56;5031427;28;20294;-68
2021/03/24 01:36:43;;;;;;;30.43;16.97;;;;;;;4.76;59.69;97411.25;5024193;28;20214;-67
2021/03/24 01:39:09;;;;;;;27.23;16.50;;;;;;;4.76;59.27;97412.09;5015942;28;20338;-68
2021/03/24 01:41:35;;;;;;;27.63;16.50;;;;;;;4.80;59.14;97414.44;5032674;28;20200;-68
2021/03/24 01:44:00;;;;;;;23.83;15.23;;;;;;;4.79;59.07;97413.63;5030738;28;20290;-67
2021/03/24 01:46:41;;;;;;;23.77;15.03;;;;;;;4.64;59.30;97418.16;5031694;28;21200;-67
2021/03/24 01:49:17;;;;;;;29.47;15.40;;;;;;;4.57;59.95;97406.53;5031570;28;20286;-68
2021/03/24 01:51:47;;;;;;;27.20;16.43;;;;;;;4.26;60.16;97400.94;5030329;28;20515;-68
2021/03/24 01:54:17;;;;;;;24.43;14.93;;;;;;;4.32;60.31;97405.69;5030937;28;20450;-67
2021/03/24 01:56:45;;;;;;;23.93;15.87;;;;;;;4.15;60.32;97399.94;5031477;28;20422;-68
2021/03/24 01:59:11;;;;;;;25.13;16.70;;;;;;;3.96;61.00;97404.72;5026089;28;20434;-67
2021/03/24 02:01:37;;;;;;;26.10;15.57;;;;;;;3.92;61.22;97401.53;5030520;28;20509;-67
2021/03/24 02:04:03;;;;;;;25.93;15.30;;;;;;;3.94;60.76;97399.66;5025708;28;20207;-67
2021/03/24 02:06:36;;;;;;;26.80;15.73;;;;;;;4.10;60.81;97398.56;5031350;28;20418;-66
2021/03/24 02:09:29;;;;;;;27.10;16.23;;;;;;;3.93;61.68;97403.19;5029266;28;20457;-67
2021/03/24 02:12:17;;;;;;;24.30;15.57;;;;;;;3.87;61.40;97403.59;5031530;28;20548;-68
2021/03/24 02:14:53;;;;;;;27.77;15.90;;;;;;;4.02;61.66;97398.28;5029716;28;20455;-67
2021/03/24 02:17:22;;;;;;;26.70;15.60;;;;;;;4.19;61.30;97400.56;5030100;28;20917;-67
2021/03/24 02:20:09;;;;;;;29.77;17.40;;;;;;;4.29;60.43;97392.91;5026694;28;20489;-67
2021/03/24 02:22:49;;;;;;;29.30;17.07;;;;;;;4.31;60.38;97396.25;5012566;28;20418;-68
2021/03/24 02:25:20;;;;;;;27.37;15.43;;;;;;;4.38;60.42;97394.91;5029661;28;20437;-67
2021/03/24 02:27:53;;;;;;;31.60;16.33;;;;;;;4.37;60.26;97390.63;5029260;28;20874;-67
2021/03/24 02:30:29;;;;;;;29.70;18.23;;;;;;;4.34;61.19;97382.25;5030252;28;20494;-67
2021/03/24 02:33:05;;;;;;;30.90;16.77;;;;;;;4.37;60.61;97390.63;5029107;28;20422;-68
2021/03/24 02:35:33;;;;;;;30.27;17.77;;;;;;;4.44;61.27;97391.84;5029815;28;20553;-68
2021/03/24 02:38:01;;;;;;;29.77;17.17;;;;;;;4.49;60.77;97385.50;5008568;28;20455;-68
2021/03/24 02:40:28;;;;;;;29.27;17.03;;;;;;;4.51;60.59;97386.22;5021404;28;20426;-68
2021/03/24 02:42:54;;;;;;;30.53;16.70;;;;;;;4.53;61.07;97384.34;5029005;28;20431;-68
2021/03/24 02:45:29;;;;;;;26.73;16.83;;;;;;;4.51;60.38;97383.63;5030415;28;20484;-68
2021/03/24 02:48:01;;;;;;;31.37;16.47;;;;;;;4.36;60.35;97382.94;5029719;28;20433;-68
2021/03/24 02:50:27;;;;;;;25.80;15.50;;;;;;;4.40;60.92;97382.63;5030198;28;20437;-68
2021/03/24 02:52:54;;;;;;;27.73;17.33;;;;;;;4.45;60.95;97390.09;5029212;28;20427;-68
2021/03/24 02:55:21;;;;;;;28.80;17.07;;;;;;;4.45;60.21;97388.31;5030221;28;20462;-68
2021/03/24 02:57:47;;;;;;;24.37;15.90;;;;;;;4.45;60.58;97388.31;5019359;28;20484;-68
2021/03/24 03:00:17;;;;;;;24.27;15.67;;;;;;;4.46;60.32;97394.34;5030097;28;20449;-69
2021/03/24 03:02:46;;;;;;;26.60;16.30;;;;;;;4.38;60.05;97394.03;5028469;28;20418;-67
2021/03/24 03:05:14;;;;;;;25.50;15.70;;;;;;;4.33;60.22;97396.97;5029390;28;20487;-68
2021/03/24 03:07:44;;;;;;;23.83;15.17;;;;;;;4.21;60.18;97392.66;5029733;28;20441;-67
2021/03/24 03:10:10;;;;;;;24.83;16.10;;;;;;;4.25;60.60;97399.28;5029377;28;20450;-68
2021/03/24 03:13:04;;;;;;;28.90;16.37;;;;;;;4.25;60.33;97399.28;5016736;28;21027;-68
2021/03/24 03:15:34;;;;;;;28.67;16.53;;;;;;;4.22;60.91;97389.13;5018577;28;20469;-70
2021/03/24 03:18:15;;;;;;;32.57;15.87;;;;;;;4.14;61.01;97390.50;5028711;28;20494;-68
2021/03/24 03:20:43;;;;;;;27.20;16.30;;;;;;;4.06;61.26;97385.00;5019398;28;20799;-68
2021/03/24 03:23:25;;;;;;;27.10;16.33;;;;;;;3.94;61.68;97398.81;5028416;28;20430;-69
2021/03/24 03:25:58;;;;;;;27.87;15.50;;;;;;;3.94;60.99;97396.22;5030336;28;20465;-66
2021/03/24 03:28:24;;;;;;;27.00;15.67;;;;;;;3.81;61.66;97401.44;5029207;28;20456;-68
2021/03/24 03:30:51;;;;;;;27.33;16.60;;;;;;;3.86;61.24;97393.34;5028860;28;20418;-70
2021/03/24 03:33:23;;;;;;;31.77;17.10;;;;;;;3.77;61.72;97390.44;5029674;28;20515;-69
2021/03/24 03:35:52;;;;;;;28.50;16.00;;;;;;;3.80;61.85;97390.22;5032703;28;20462;-68
2021/03/24 03:38:18;;;;;;;30.10;16.50;;;;;;;3.84;61.44;97386.50;5031958;28;20446;-66
2021/03/24 03:40:46;;;;;;;28.50;16.70;;;;;;;3.71;61.53;97385.66;5032500;28;20901;-68
2021/03/24 03:43:15;;;;;;;30.57;17.20;;;;;;;3.79;61.83;97385.16;5015681;28;20426;-70
2021/03/24 03:45:42;;;;;;;33.37;16.83;;;;;;;3.71;61.79;97388.25;5016151;28;20542;-69
2021/03/24 03:48:11;;;;;;;26.10;15.60;;;;;;;3.79;62.07;97392.94;5032340;28;20415;-68
2021/03/24 03:50:37;;;;;;;26.83;16.87;;;;;;;3.84;61.66;97385.69;5032588;28;20415;-69
2021/03/24 03:53:05;;;;;;;28.50;17.20;;;;;;;3.89;62.07;97386.16;5031636;28;20436;-69
2021/03/24 03:55:53;;;;;;;32.50;18.33;;;;;;;3.96;62.10;97391.75;5033393;28;20605;-68
2021/03/24 03:58:28;;;;;;;29.50;17.07;;;;;;;4.00;62.01;97380.25;5031326;28;20437;-69
2021/03/24 04:01:23;;;;;;;29.00;17.47;;;;;;;3.96;62.34;97379.63;5033355;28;20410;-68
2021/03/24 04:04:09;;;;;;;30.70;17.67;;;;;;;3.99;62.50;97381.19;5031225;28;20453;-68
2021/03/24 04:06:39;;;;;;;41.40;19.37;;;;;;;3.96;62.68;97389.16;5032361;28;20427;-68
2021/03/24 04:09:07;;;;;;;31.67;18.50;;;;;;;3.97;62.72;97385.63;5032340;28;20450;-68
2021/03/24 04:11:40;;;;;;;36.80;18.13;;;;;;;4.00;62.78;97377.66;5032218;28;20521;-68
2021/03/24 04:14:06;;;;;;;30.60;18.60;;;;;;;3.97;62.55;97385.63;5014589;28;20446;-69
2021/03/24 04:16:32;;;;;;;31.40;18.77;;;;;;;3.97;62.63;97376.09;5025397;28;20751;-68
2021/03/24 04:19:04;;;;;;;30.50;18.00;;;;;;;3.95;62.94;97384.91;5029504;28;20439;-69
2021/03/24 04:21:31;;;;;;;30.27;19.33;;;;;;;4.00;62.99;97375.06;5032197;28;20215;-67
2021/03/24 04:24:00;;;;;;;31.30;19.00;;;;;;;4.07;62.57;97365.09;5030662;28;20427;-68
2021/03/24 04:26:31;;;;;;;29.00;17.73;;;;;;;4.08;62.54;97372.75;5031992;28;20430;-68
2021/03/24 04:28:59;;;;;;;32.30;19.53;;;;;;;4.05;63.30;97367.78;5032116;28;20442;-68
2021/03/24 04:31:26;;;;;;;32.20;18.90;;;;;;;4.05;62.53;97367.78;5031725;28;20441;-69
2021/03/24 04:33:52;;;;;;;30.03;18.87;;;;;;;4.10;63.43;97364.84;5030891;28;20426;-68
2021/03/24 04:36:28;;;;;;;34.53;20.77;;;;;;;4.09;63.12;97374.41;5031768;28;20549;-69
2021/03/24 04:38:57;;;;;;;30.67;18.27;;;;;;;4.13;63.33;97370.69;5030898;28;20286;-68
2021/03/24 04:41:26;;;;;;;33.43;18.87;;;;;;;4.17;63.21;97370.44;5031663;28;20508;-68
2021/03/24 04:43:58;;;;;;;28.90;17.93;;;;;;;4.01;62.56;97371.53;5030585;28;20913;-69
2021/03/24 04:46:35;;;;;;;31.37;19.07;;;;;;;3.90;62.59;97385.25;5031054;28;20498;-69
2021/03/24 04:49:06;;;;;;;37.37;20.10;;;;;;;3.97;62.84;97390.84;5030964;28;20446;-68
2021/03/24 04:51:36;;;;;;;34.13;18.40;;;;;;;4.02;62.18;97383.56;5032641;28;20430;-67
2021/03/24 04:54:11;;;;;;;32.67;18.40;;;;;;;4.06;62.64;97394.56;5031516;28;20466;-68
2021/03/24 04:56:39;;;;;;;36.03;18.00;;;;;;;4.05;62.19;97388.53;5010676;28;20829;-68
2021/03/24 04:59:04;;;;;;;34.10;18.00;;;;;;;4.03;62.29;97384.38;5015601;28;20443;-68
2021/03/24 05:01:37;;;;;;;32.80;20.73;;;;;;;4.03;62.67;97387.81;5010009;28;20450;-68
2021/03/24 05:04:06;;;;;;;31.80;19.93;;;;;;;4.00;62.56;97377.66;5013052;28;20217;-68
2021/03/24 05:06:52;;;;;;;32.33;19.50;;;;;;;3.98;63.20;97376.94;5016319;28;20439;-68
2021/03/24 05:09:18;;;;;;;34.87;17.97;;;;;;;3.96;62.38;97373.59;5005405;28;20454;-69
2021/03/24 05:11:55;;;;;;;33.43;19.13;;;;;;;3.89;61.94;97387.94;5010289;28;20814;-68
2021/03/24 05:14:30;;;;;;;32.70;18.20;;;;;;;3.63;61.91;97387.97;5010624;28;21001;-68
2021/03/24 05:17:07;;;;;;;30.40;17.70;;;;;;;3.66;61.80;97388.59;5010877;28;20430;-69
2021/03/24 05:19:33;;;;;;;35.37;18.00;;;;;;;3.65;62.02;97394.69;5010197;28;20562;-68
2021/03/24 05:22:01;;;;;;;28.03;17.50;;;;;;;3.61;61.96;97395.81;5010560;28;20419;-68
2021/03/24 05:24:29;;;;;;;32.43;18.40;;;;;;;3.65;61.92;97391.28;5010928;28;20185;-67
2021/03/24 05:27:02;;;;;;;29.80;18.30;;;;;;;3.63;61.67;97393.97;5012794;28;20569;-67
2021/03/24 05:29:32;;;;;;;29.37;18.47;;;;;;;3.54;61.97;97394.59;5011012;28;20449;-66
2021/03/24 05:31:58;;;;;;;31.13;19.47;;;;;;;3.54;61.83;97392.81;5011471;28;20451;-67
2021/03/24 05:34:33;;;;;;;30.63;19.07;;;;;;;3.58;61.97;97395.22;5010150;28;21027;-66
2021/03/24 05:36:58;;;;;;;31.63;19.03;;;;;;;3.61;62.29;97403.59;5010935;28;20435;-67
2021/03/24 05:39:31;;;;;;;36.67;19.70;;;;;;;3.62;62.36;97394.91;5010954;28;20454;-67
2021/03/24 05:42:18;;;;;;;32.10;18.50;;;;;;;3.68;62.17;97404.88;5011899;28;20227;-66
2021/03/24 05:44:50;;;;;;;32.70;18.97;;;;;;;3.76;62.62;97399.16;5016015;28;20901;-66
2021/03/24 05:47:49;;;;;;;39.47;18.93;;;;;;;3.74;62.91;97408.81;5011716;28;20427;-67
2021/03/24 05:50:54;;;;;;;38.67;19.23;;;;;;;3.91;62.21;97406.81;5005878;28;20427;-68
2021/03/24 05:53:27;;;;;;;31.93;18.40;;;;;;;4.00;61.97;97411.38;5008186;28;20650;-68
2021/03/24 05:56:25;;;;;;;34.03;18.37;;;;;;;4.19;61.71;97399.69;5012539;28;20451;-68
2021/03/24 05:59:16;;;;;;;31.40;19.47;;;;;;;4.20;61.34;97406.56;4995754;28;20467;-67
2021/03/24 06:01:46;;;;;;;34.97;19.40;;;;;;;4.39;61.33;97412.13;4992765;28;20750;-68
2021/03/24 06:04:15;;;;;;;30.07;18.50;;;;;;;4.46;60.87;97413.34;5012987;28;20427;-67
2021/03/24 06:07:17;;;;;;;35.77;18.80;;;;;;;4.54;60.59;97418.00;5011729;28;20922;-68
2021/03/24 06:10:30;;;;;;;31.47;19.63;;;;;;;4.70;60.06;97420.31;5008186;28;20449;-68
2021/03/24 06:13:08;;;;;;;46.43;21.63;;;;;;;4.82;60.15;97417.75;4966786;28;20429;-68
2021/03/24 06:15:49;;;;;;;37.60;19.83;;;;;;;4.96;59.90;97415.00;4954021;28;21006;-68
2021/03/24 06:18:33;;;;;;;38.33;19.80;;;;;;;5.02;59.27;97416.31;4962761;28;20417;-68
2021/03/24 06:21:29;;;;;;;36.40;20.70;;;;;;;5.12;59.39;97419.91;4968076;28;20425;-68
2021/03/24 06:23:55;;;;;;;38.70;23.43;;;;;;;5.23;58.70;97406.94;4960632;28;20432;-68
2021/03/24 06:26:23;;;;;;;36.00;21.10;;;;;;;5.42;58.60;97418.56;4971822;28;20440;-68
2021/03/24 06:29:09;;;;;;;32.33;18.97;;;;;;;5.40;58.34;97415.25;4953403;28;20240;-68
2021/03/24 06:31:41;;;;;;;30.70;19.93;;;;;;;5.63;58.29;97417.91;4965945;28;20482;-69
2021/03/24 06:34:27;;;;;;;29.17;18.50;;;;;;;5.71;58.00;97405.16;4968329;28;21034;-68
2021/03/24 06:37:09;;;;;;;31.93;19.10;;;;;;;5.92;57.75;97413.06;4969643;28;20429;-68
2021/03/24 06:39:59;;;;;;;43.27;23.37;;;;;;;6.22;57.81;97418.69;4968604;28;20467;-68
2021/03/24 06:42:32;;;;;;;33.17;18.60;;;;;;;6.52;56.44;97415.44;4953229;28;20521;-68
2021/03/24 06:45:23;;;;;;;31.50;18.27;;;;;;;6.86;55.83;97420.56;5008998;28;20443;-69
2021/03/24 06:48:32;;;;;;;26.90;17.40;;;;;;;7.36;53.65;97413.94;5009689;28;20447;-68
2021/03/24 06:51:34;;;;;;;30.77;18.50;;;;;;;8.01;52.04;97413.75;4949824;28;20433;-68
2021/03/24 06:54:21;;;;;;;31.17;17.50;;;;;;;8.09;50.82;97421.75;4948436;28;20475;-70
2021/03/24 06:57:16;;;;;;;30.17;17.70;;;;;;;7.70;51.90;97424.16;4947953;28;20426;-69
2021/03/24 07:00:10;;;;;;;29.10;18.00;;;;;;;7.67;51.91;97421.84;4949868;28;20438;-69
2021/03/24 07:02:50;;;;;;;31.83;18.00;;;;;;;7.48;53.27;97422.53;4949988;28;20438;-68
2021/03/24 07:05:36;;;;;;;29.07;18.13;;;;;;;7.66;52.69;97418.38;4950097;28;20775;-68
2021/03/24 07:08:23;;;;;;;31.33;18.50;;;;;;;7.71;52.81;97425.81;4911596;28;20441;-68
2021/03/24 07:11:11;;;;;;;32.73;18.83;;;;;;;7.66;51.95;97423.59;4953383;28;20552;-68
2021/03/24 07:13:55;;;;;;;39.40;19.70;;;;;;;7.82;51.69;97428.34;4954688;28;20746;-68
2021/03/24 07:16:23;;;;;;;32.63;19.10;;;;;;;7.72;52.39;97435.31;4958634;28;20449;-68
2021/03/24 07:19:19;;;;;;;37.10;20.20;;;;;;;7.80;52.11;97440.72;4956909;28;20517;-68
2021/03/24 07:22:02;;;;;;;25.57;16.07;;;;;;;8.73;58.72;97435.44;4973067;28;20436;-67
2021/03/24 07:24:41;;;;;;;16.67;12.00;;;;;;;12.47;50.91;97438.66;4957708;28;20426;-68
2021/03/24 07:27:26;;;;;;;24.77;15.87;;;;;;;15.50;44.21;97416.22;4969900;28;20430;-67
2021/03/24 07:30:10;;;;;;;24.57;16.13;;;;;;;15.85;45.60;97429.00;5034010;28;20466;-67
2021/03/24 07:33:00;;;;;;;29.57;17.93;;;;;;;15.94;42.29;97433.19;5034491;28;20426;-67
2021/03/24 07:35:34;;;;;;;26.60;16.40;;;;;;;15.04;36.43;97429.47;5032756;28;20479;-69
2021/03/24 07:38:18;;;;;;;25.60;16.70;;;;;;;12.96;39.55;97433.53;5033301;28;20472;-69
2021/03/24 07:41:18;;;;;;;33.13;17.60;;;;;;;11.64;41.11;97439.00;5033614;28;20417;-67
2021/03/24 07:44:02;;;;;;;28.03;17.00;;;;;;;11.15;42.67;97441.25;5026454;28;20778;-71
2021/03/24 07:47:02;;;;;;;29.40;17.47;;;;;;;10.49;44.66;97438.75;5034411;28;20480;-72
2021/03/24 07:49:51;;;;;;;29.30;17.43;;;;;;;10.08;45.75;97439.03;5005136;28;20460;-69
2021/03/24 07:52:39;;;;;;;28.43;17.63;;;;;;;9.95;46.10;97439.38;5018375;28;20418;-71
2021/03/24 07:55:17;;;;;;;31.00;17.30;;;;;;;9.98;46.88;97441.69;5026352;28;20462;-71
2021/03/24 07:57:53;;;;;;;31.40;17.27;;;;;;;9.76;47.46;97444.63;5009358;28;20431;-71
2021/03/24 08:00:24;;;;;;;30.97;16.37;;;;;;;9.65;47.62;97446.44;5018849;28;20760;-70
2021/03/24 08:02:58;;;;;;;24.60;15.97;;;;;;;9.85;47.10;97443.78;5032955;28;20422;-72
2021/03/24 08:05:40;;;;;;;27.63;15.13;;;;;;;9.77;46.74;97438.44;5033631;28;20888;-71
2021/03/24 08:08:17;;;;;;;27.70;16.20;;;;;;;9.64;47.86;97438.75;5031953;28;20560;-69
2021/03/24 08:11:10;;;;;;;28.90;16.93;;;;;;;10.02;47.42;97428.31;5032469;28;20414;-69
2021/03/24 08:13:46;;;;;;;33.57;16.47;;;;;;;9.85;47.88;97441.16;5024064;28;20411;-68
2021/03/24 08:16:27;;;;;;;33.83;17.10;;;;;;;10.07;47.53;97436.56;5032020;28;20454;-69
2021/03/24 08:19:37;;;;;;;35.63;17.20;;;;;;;9.76;49.30;97442.03;5022177;28;20970;-69
2021/03/24 08:22:48;;;;;;;28.07;16.70;;;;;;;10.21;46.98;97433.47;5002526;28;20593;-69
2021/03/24 08:25:52;;;;;;;27.40;16.60;;;;;;;10.20;47.31;97434.44;5012204;28;20430;-67
2021/03/24 08:28:48;;;;;;;25.77;17.13;;;;;;;10.28;46.61;97434.53;4979236;28;21072;-69
2021/03/24 08:31:29;;;;;;;34.17;17.07;;;;;;;10.33;46.98;97433.28;5014591;28;20411;-68
2021/03/24 08:34:14;;;;;;;22.50;15.00;;;;;;;10.53;46.54;97434.03;5011064;28;20938;-68
2021/03/24 08:37:01;;;;;;;23.27;15.17;;;;;;;10.15;46.83;97437.47;5042295;28;20431;-67
2021/03/24 08:40:20;;;;;;;26.23;16.10;;;;;;;10.50;46.23;97437.78;5021495;28;20933;-68
2021/03/24 08:43:10;;;;;;;22.97;15.50;;;;;;;11.02;45.70;97428.47;4955719;28;20591;-68
2021/03/24 08:46:04;;;;;;;24.70;15.10;;;;;;;11.25;45.01;97430.66;5032869;28;20423;-68
2021/03/24 08:48:39;;;;;;;24.37;14.00;;;;;;;11.45;43.71;97431.31;5022083;28;20822;-68
2021/03/24 08:51:13;;;;;;;27.50;15.17;;;;;;;11.71;43.66;97435.75;5031044;28;20422;-67
2021/03/24 08:53:56;;;;;;;27.47;15.27;;;;;;;11.61;44.20;97433.22;5030788;28;20605;-67
2021/03/24 08:56:40;;;;;;;20.50;13.40;;;;;;;11.87;43.12;97432.41;5018367;28;20486;-67
2021/03/24 08:59:30;;;;;;;21.80;15.00;;;;;;;11.66;44.13;97430.97;5025611;28;20500;-67
2021/03/24 09:02:02;;;;;;;25.30;14.57;;;;;;;11.52;44.15;97433.16;5031182;28;20480;-67
2021/03/24 09:05:07;;;;;;;23.10;15.10;;;;;;;11.42;44.23;97429.81;5031904;28;20423;-67
2021/03/24 09:07:58;;;;;;;24.27;14.57;;;;;;;11.68;43.79;97429.03;5021420;28;20518;-68
2021/03/24 09:10:34;;;;;;;20.10;13.90;;;;;;;11.61;44.52;97428.81;5019287;28;20496;-68
2021/03/24 09:13:05;;;;;;;28.50;15.33;;;;;;;11.94;43.35;97429.00;4992678;28;20430;-68
2021/03/24 09:15:38;;;;;;;20.07;13.90;;;;;;;11.53;44.24;97426.94;5029401;28;20481;-68
2021/03/24 09:18:20;;;;;;;26.90;14.27;;;;;;;11.72;44.65;97427.72;5029998;28;20812;-68
2021/03/24 09:20:58;;;;;;;21.87;15.00;;;;;;;12.10;43.24;97423.03;5029600;28;20419;-69
2021/03/24 09:23:48;;;;;;;23.47;15.27;;;;;;;12.35;43.17;97431.03;5031435;28;20422;-67
2021/03/24 09:26:32;;;;;;;26.03;15.60;;;;;;;11.79;44.39;97434.00;5030343;28;20435;-69
2021/03/24 09:29:30;;;;;;;24.33;15.27;;;;;;;12.09;43.53;97431.94;5032578;28;20438;-69
2021/03/24 09:32:08;;;;;;;23.93;15.40;;;;;;;11.72;44.72;97440.03;4995954;28;20554;-68
2021/03/24 09:34:42;;;;;;;27.93;15.47;;;;;;;11.70;44.25;97428.84;5031151;28;21036;-68
2021/03/24 09:37:18;;;;;;;24.67;15.73;;;;;;;11.91;44.07;97431.13;5032097;28;20422;-69
2021/03/24 09:39:50;;;;;;;26.30;16.30;;;;;;;12.31;43.04;97428.88;5030781;28;20498;-68
2021/03/24 09:42:30;;;;;;;26.83;15.30;;;;;;;11.80;44.24;97429.56;5026122;28;20423;-67
2021/03/24 09:45:06;;;;;;;24.23;14.20;;;;;;;12.43;42.98;97425.84;5029307;28;20414;-68
2021/03/24 09:47:40;;;;;;;21.50;14.60;;;;;;;12.50;42.58;97415.50;5031709;28;20429;-67
2021/03/24 09:50:37;;;;;;;26.40;16.97;;;;;;;12.27;43.60;97417.88;5009327;28;20434;-68
2021/03/24 09:53:25;;;;;;;26.17;15.47;;;;;;;12.72;42.61;97408.00;5015711;28;20504;-69
2021/03/24 09:55:59;;;;;;;24.97;14.23;;;;;;;13.08;41.26;97410.34;5031343;28;20458;-69
2021/03/24 09:58:27;;;;;;;25.17;16.33;;;;;;;12.57;41.85;97410.44;5026501;28;20448;-70
2021/03/24 10:01:01;;;;;;;21.83;14.70;;;;;;;12.42;41.95;97411.03;5031038;28;20435;-69
2021/03/24 10:03:42;;;;;;;25.87;15.40;;;;;;;11.71;44.25;97407.72;5030470;28;20421;-68
2021/03/24 10:06:18;;;;;;;31.57;13.77;;;;;;;12.81;42.51;97398.31;5028752;28;20446;-69
2021/03/24 10:08:46;;;;;;;20.37;15.17;;;;;;;12.99;41.38;97399.00;5031108;28;20438;-68
2021/03/24 10:11:16;;;;;;;30.70;15.83;;;;;;;12.95;41.48;97399.47;5029457;28;20426;-70
2021/03/24 10:13:58;;;;;;;24.50;14.70;;;;;;;13.08;41.78;97399.03;5008057;28;21017;-69
2021/03/24 10:16:35;;;;;;;23.70;13.97;;;;;;;13.55;40.36;97401.00;5015638;28;20424;-68
2021/03/24 10:19:12;;;;;;;20.50;13.70;;;;;;;13.98;38.80;97395.50;5025529;28;20530;-68
2021/03/24 10:21:37;;;;;;;21.87;14.43;;;;;;;13.83;39.49;97398.00;5025998;28;20802;-66
2021/03/24 10:24:11;;;;;;;25.30;13.73;;;;;;;13.88;38.92;97395.66;5030011;28;20426;-68
2021/03/24 10:26:41;;;;;;;28.73;15.70;;;;;;;13.03;40.82;97395.06;5029276;28;20684;-69
2021/03/24 10:29:09;;;;;;;23.47;13.83;;;;;;;14.15;38.85;97380.44;5026651;28;20450;-68
2021/03/24 10:31:40;;;;;;;22.37;14.03;;;;;;;13.74;38.92;97389.28;4992373;28;20465;-68
2021/03/24 10:34:25;;;;;;;21.20;13.50;;;;;;;13.49;39.60;97375.31;5021410;28;20462;-68
2021/03/24 10:36:55;;;;;;;23.20;13.90;;;;;;;14.19;38.74;97380.91;5029285;28;20927;-68
2021/03/24 10:39:27;;;;;;;25.07;14.20;;;;;;;14.34;38.56;97373.13;5030700;28;20476;-68
2021/03/24 10:42:29;;;;;;;25.67;14.37;;;;;;;14.32;38.19;97370.63;5024416;28;20428;-68
2021/03/24 10:45:20;;;;;;;22.03;13.70;;;;;;;14.20;39.39;97366.75;4934308;28;20432;-68
2021/03/24 10:48:10;;;;;;;19.93;13.33;;;;;;;14.58;38.36;97356.34;4949966;28;20989;-68
2021/03/24 10:50:39;;;;;;;22.03;13.80;;;;;;;14.95;37.48;97362.72;4933946;29;20465;-68
2021/03/24 10:53:25;;;;;;;22.37;13.47;;;;;;;15.17;36.50;97362.91;4933762;28;20441;-67
2021/03/24 10:56:09;;;;;;;20.30;12.70;;;;;;;14.43;37.88;97361.53;4948986;28;20821;-67
2021/03/24 10:58:53;;;;;;;22.33;13.70;;;;;;;15.24;37.03;97360.38;4954682;28;20621;-69
2021/03/24 11:01:37;;;;;;;18.23;12.80;;;;;;;15.58;36.05;97359.06;4934832;29;20570;-70
2021/03/24 11:04:21;;;;;;;17.60;11.73;;;;;;;16.00;35.28;97357.66;4932962;28;20445;-69
2021/03/24 11:07:02;;;;;;;20.53;12.57;;;;;;;16.23;34.62;97360.16;4934541;28;20438;-67
2021/03/24 11:09:41;;;;;;;19.50;12.77;;;;;;;15.39;36.10;97360.38;4931707;29;20489;-69
2021/03/24 11:12:09;;;;;;;15.93;11.73;;;;;;;16.16;35.20;97359.28;4933847;28;20528;-67
2021/03/24 11:14:38;;;;;;;25.33;13.80;;;;;;;16.69;33.98;97345.03;4931824;29;20857;-67
2021/03/24 11:17:11;;;;;;;18.50;12.47;;;;;;;16.31;34.35;97343.38;4949491;28;20434;-68
2021/03/24 11:19:43;;;;;;;19.53;13.00;;;;;;;15.81;35.24;97343.94;4950661;28;20450;-67
2021/03/24 11:22:30;;;;;;;17.30;11.57;;;;;;;16.50;34.48;97331.38;5016820;28;20418;-68
2021/03/24 11:25:00;;;;;;;17.80;12.00;;;;;;;16.65;34.10;97333.97;5028356;28;20533;-67
2021/03/24 11:27:59;;;;;;;17.97;11.87;;;;;;;16.91;33.53;97331.78;5029012;28;20430;-67
2021/03/24 11:30:31;;;;;;;18.90;11.40;;;;;;;16.68;33.72;97327.50;4993667;28;20532;-67
2021/03/24 11:33:01;;;;;;;16.57;11.80;;;;;;;15.73;35.48;97328.19;5030004;28;20427;-67
2021/03/24 11:35:29;;;;;;;25.57;13.03;;;;;;;16.28;34.70;97317.31;5028116;28;20466;-67
2021/03/24 11:38:21;;;;;;;21.53;11.90;;;;;;;17.02;33.69;97313.59;5028762;28;20802;-68
2021/03/24 11:40:52;;;;;;;18.60;11.93;;;;;;;16.96;33.04;97324.94;5030046;28;20410;-67
2021/03/24 11:43:28;;;;;;;20.00;12.57;;;;;;;16.56;33.95;97321.88;5023534;28;20422;-68
2021/03/24 11:46:07;;;;;;;19.37;13.40;;;;;;;15.62;35.22;97323.38;5012163;28;21254;-67
2021/03/24 11:48:50;;;;;;;19.80;12.80;;;;;;;17.14;33.36;97316.53;5029088;28;20468;-67
2021/03/24 11:51:31;;;;;;;20.23;12.73;;;;;;;17.32;33.01;97321.38;5014297;28;20434;-68
2021/03/24 11:54:12;;;;;;;21.33;13.57;;;;;;;16.32;34.55;97310.66;5029558;28;20438;-67
2021/03/24 11:56:53;;;;;;;26.30;14.10;;;;;;;16.15;34.98;97328.56;5033765;28;20422;-67
2021/03/24 11:59:47;;;;;;;21.50;13.77;;;;;;;16.72;33.85;97324.28;5023676;28;20454;-67
2021/03/24 12:02:23;;;;;;;24.87;14.13;;;;;;;16.97;33.70;97315.16;4960313;28;20880;-70
2021/03/24 12:05:01;;;;;;;28.40;14.00;;;;;;;17.76;32.43;97308.00;4952380;28;20458;-67